createdAt,value
2022-10-12T00:00:52.088Z,33.96
2022-10-12T00:03:35.033Z,33.93
2022-10-12T00:06:05.512Z,33.92
2022-10-12T00:08:34.310Z,33.91
2022-10-12T00:11:02.623Z,33.85
2022-10-12T00:13:32.505Z,33.98
2022-10-12T00:16:03.747Z,33.89
2022-10-12T00:18:31.986Z,32.81
2022-10-12T00:21:04.185Z,33.77
2022-10-12T00:23:32.985Z,34.71
2022-10-12T00:26:05.311Z,34.43
2022-10-12T00:28:35.401Z,34.40
2022-10-12T00:31:03.851Z,34.45
2022-10-12T00:33:32.132Z,34.39
2022-10-12T00:36:00.360Z,34.44
2022-10-12T00:38:28.479Z,34.26
2022-10-12T00:40:56.866Z,34.30
2022-10-12T00:43:27.431Z,34.25
2022-10-12T00:45:57.239Z,34.24
2022-10-12T00:48:25.997Z,34.19
2022-10-12T00:50:54.613Z,34.28
2022-10-12T00:53:25.033Z,34.21
2022-10-12T00:55:59.341Z,34.07
2022-10-12T00:58:28.934Z,33.92
2022-10-12T01:00:58.699Z,34.32
2022-10-12T01:03:27.380Z,34.70
2022-10-12T01:05:55.633Z,34.99
2022-10-12T01:08:24.105Z,35.02
2022-10-12T01:10:52.456Z,35.10
2022-10-12T01:13:20.863Z,35.18
2022-10-12T01:15:55.649Z,34.83
2022-10-12T01:18:28.987Z,35.12
2022-10-12T01:21:08.008Z,35.04
2022-10-12T01:23:50.034Z,34.93
2022-10-12T01:26:41.702Z,34.81
2022-10-12T01:29:24.241Z,34.74
2022-10-12T01:31:59.887Z,34.75
2022-10-12T01:34:30.953Z,35.32
2022-10-12T01:37:03.478Z,34.88
2022-10-12T01:39:36.111Z,35.02
2022-10-12T01:42:08.156Z,35.41
2022-10-12T01:44:40.532Z,35.63
2022-10-12T01:47:12.169Z,35.60
2022-10-12T01:49:40.622Z,35.79
2022-10-12T01:52:28.932Z,34.81
2022-10-12T01:55:07.541Z,35.31
2022-10-12T01:57:43.506Z,35.59
2022-10-12T02:00:13.652Z,35.55
2022-10-12T02:02:51.828Z,35.10
2022-10-12T02:05:26.312Z,35.33
2022-10-12T02:07:57.264Z,35.56
2022-10-12T02:10:29.042Z,35.73
2022-10-12T02:12:59.236Z,35.77
2022-10-12T02:15:28.441Z,35.76
2022-10-12T02:17:59.051Z,35.64
2022-10-12T02:20:28.176Z,36.29
2022-10-12T02:22:56.853Z,36.31
2022-10-12T02:25:27.104Z,35.99
2022-10-12T02:27:58.696Z,36.10
2022-10-12T02:30:27.151Z,36.31
2022-10-12T02:33:00.836Z,35.83
2022-10-12T02:35:34.099Z,36.10
2022-10-12T02:38:04.823Z,36.36
2022-10-12T02:40:36.005Z,36.09
2022-10-12T02:43:10.372Z,35.32
2022-10-12T02:45:39.936Z,36.50
2022-10-12T02:48:10.752Z,36.28
2022-10-12T02:50:38.995Z,36.94
2022-10-12T02:53:07.399Z,36.66
2022-10-12T02:55:39.594Z,36.23
2022-10-12T02:58:07.705Z,36.48
2022-10-12T03:00:35.948Z,36.43
2022-10-12T03:03:04.320Z,36.35
2022-10-12T03:05:33.908Z,36.11
2022-10-12T03:08:01.977Z,36.31
2022-10-12T03:10:30.285Z,36.36
2022-10-12T03:12:58.356Z,36.43
2022-10-12T03:15:26.546Z,36.49
2022-10-12T03:17:54.819Z,36.25
2022-10-12T03:20:23.112Z,36.40
2022-10-12T03:22:53.448Z,35.95
2022-10-12T03:25:21.816Z,36.03
2022-10-12T03:27:50.040Z,36.09
2022-10-12T03:30:18.244Z,36.01
2022-10-12T03:32:46.601Z,35.92
2022-10-12T03:35:14.716Z,36.22
2022-10-12T03:37:42.921Z,36.39
2022-10-12T03:40:13.982Z,36.07
2022-10-12T03:42:42.128Z,36.32
2022-10-12T03:45:11.119Z,36.29
2022-10-12T03:47:39.935Z,36.34
2022-10-12T03:50:09.121Z,36.59
2022-10-12T03:52:37.326Z,36.32
2022-10-12T03:55:06.203Z,36.58
2022-10-12T03:57:36.007Z,36.36
2022-10-12T04:00:05.762Z,36.57
2022-10-12T04:02:34.021Z,36.93
2022-10-12T04:05:02.239Z,36.91
2022-10-12T04:07:30.536Z,36.97
2022-10-12T04:09:58.793Z,37.09
2022-10-12T04:12:27.113Z,37.09
2022-10-12T04:14:56.812Z,36.80
2022-10-12T04:17:24.929Z,37.08
2022-10-12T04:19:53.234Z,36.95
2022-10-12T04:22:21.299Z,37.08
2022-10-12T04:24:49.418Z,36.99
2022-10-12T04:27:17.671Z,36.92
2022-10-12T04:29:45.746Z,36.97
2022-10-12T04:32:15.260Z,36.86
2022-10-12T04:34:43.582Z,37.09
2022-10-12T04:37:11.687Z,37.05
2022-10-12T04:39:40.090Z,37.15
2022-10-12T04:42:08.302Z,37.04
2022-10-12T04:44:36.707Z,37.03
2022-10-12T04:47:04.967Z,37.26
2022-10-12T04:49:34.805Z,37.00
2022-10-12T04:52:02.918Z,37.21
2022-10-12T04:54:32.925Z,37.17
2022-10-12T04:57:01.839Z,37.29
2022-10-12T04:59:30.346Z,37.38
2022-10-12T05:01:58.529Z,37.44
2022-10-12T05:04:26.736Z,37.55
2022-10-12T05:06:56.392Z,37.06
2022-10-12T05:09:24.521Z,37.14
2022-10-12T05:11:52.718Z,36.99
2022-10-12T05:14:20.890Z,36.98
2022-10-12T05:16:49.364Z,36.82
2022-10-12T05:19:17.499Z,36.23
2022-10-12T05:21:45.722Z,35.79
2022-10-12T05:24:15.508Z,35.44
2022-10-12T05:26:43.839Z,35.65
2022-10-12T05:29:12.038Z,35.28
2022-10-12T05:31:40.354Z,34.99
2022-10-12T05:34:08.685Z,35.16
2022-10-12T05:36:37.306Z,34.85
2022-10-12T05:39:05.482Z,34.82
2022-10-12T05:41:35.252Z,34.29
2022-10-12T05:44:03.527Z,34.52
2022-10-12T05:46:31.808Z,34.67
2022-10-12T05:48:59.926Z,34.57
2022-10-12T05:51:29.148Z,34.31
2022-10-12T05:53:57.374Z,34.10
2022-10-12T05:56:25.740Z,33.55
2022-10-12T05:58:55.406Z,32.91
2022-10-12T06:01:23.885Z,32.85
2022-10-12T06:03:53.441Z,32.34
2022-10-12T06:06:22.026Z,32.31
2022-10-12T06:08:50.141Z,32.37
2022-10-12T06:11:18.492Z,32.51
2022-10-12T06:13:46.612Z,32.40
2022-10-12T06:16:16.403Z,31.44
2022-10-12T06:18:44.484Z,31.25
2022-10-12T06:24:01.224Z,29.36
2022-10-12T06:26:29.646Z,29.37
2022-10-12T06:28:58.011Z,27.79
2022-10-12T06:31:28.233Z,25.67
2022-10-12T06:33:56.352Z,23.85
2022-10-12T06:36:24.652Z,22.79
2022-10-12T06:38:53.417Z,21.98
2022-10-12T06:41:21.771Z,21.44
2022-10-12T06:43:49.980Z,20.67
2022-10-12T06:46:18.637Z,20.51
2022-10-12T06:48:48.092Z,20.47
2022-10-12T06:51:16.514Z,20.21
2022-10-12T06:53:44.552Z,19.50
2022-10-12T06:56:13.852Z,20.20
2022-10-12T06:58:42.193Z,19.81
2022-10-12T07:01:11.165Z,19.42
2022-10-12T07:03:39.479Z,17.59
2022-10-12T07:06:11.857Z,17.90
2022-10-12T07:08:41.179Z,18.22
2022-10-12T07:11:11.930Z,18.17
2022-10-12T07:13:40.365Z,18.61
2022-10-12T07:16:09.337Z,18.31
2022-10-12T07:18:37.525Z,18.86
2022-10-12T07:21:06.091Z,18.99
2022-10-12T07:23:41.359Z,19.19
2022-10-12T07:26:13.377Z,19.06
2022-10-12T07:28:41.802Z,19.27
2022-10-12T07:31:10.777Z,18.84
2022-10-12T07:33:39.733Z,17.60
2022-10-12T07:36:21.384Z,15.77
2022-10-12T07:38:51.728Z,13.91
2022-10-12T07:41:20.131Z,13.69
2022-10-12T07:43:48.333Z,13.05
2022-10-12T07:46:16.613Z,13.45
2022-10-12T07:48:49.966Z,13.34
2022-10-12T07:51:18.993Z,13.80
2022-10-12T07:53:47.337Z,13.97
2022-10-12T07:56:17.097Z,14.29
2022-10-12T07:58:49.936Z,13.73
2022-10-12T08:01:19.268Z,12.44
2022-10-12T08:03:47.663Z,10.77
2022-10-12T08:06:17.425Z,9.57
2022-10-12T08:08:46.209Z,8.56
2022-10-12T08:11:16.068Z,8.02
2022-10-12T08:13:44.752Z,7.66
2022-10-12T08:16:15.531Z,7.36
2022-10-12T08:18:44.445Z,7.43
2022-10-12T08:21:16.559Z,7.51
2022-10-12T08:23:45.641Z,7.34
2022-10-12T08:26:16.899Z,6.52
2022-10-12T08:28:45.525Z,6.46
2022-10-12T08:31:16.583Z,5.88
2022-10-12T08:33:45.175Z,5.86
2022-10-12T08:36:14.378Z,5.59
2022-10-12T08:38:43.632Z,5.69
2022-10-12T08:41:22.639Z,4.79
2022-10-12T08:44:01.449Z,4.47
2022-10-12T08:46:30.453Z,4.34
2022-10-12T08:49:00.877Z,4.40
2022-10-12T08:51:31.712Z,4.00
2022-10-12T08:54:03.843Z,3.55
2022-10-12T08:56:35.014Z,3.68
2022-10-12T08:59:03.933Z,3.27
2022-10-12T09:01:37.477Z,3.10
2022-10-12T09:04:13.448Z,2.77
2022-10-12T09:06:46.648Z,2.73
2022-10-12T09:09:34.667Z,2.71
2022-10-12T09:12:11.134Z,3.58
2022-10-12T09:14:40.514Z,4.16
2022-10-12T09:17:23.496Z,3.94
2022-10-12T09:19:59.792Z,3.73
2022-10-12T09:22:29.181Z,3.29
2022-10-12T09:24:58.750Z,2.82
2022-10-12T09:27:31.304Z,3.57
2022-10-12T09:30:03.202Z,3.19
2022-10-12T09:32:42.013Z,3.84
2022-10-12T09:35:13.409Z,3.34
2022-10-12T09:37:42.040Z,3.50
2022-10-12T09:40:18.575Z,2.91
2022-10-12T09:42:48.884Z,2.65
2022-10-12T09:45:19.849Z,2.14
2022-10-12T09:48:16.457Z,2.07
2022-10-12T09:50:47.156Z,2.33
2022-10-12T09:53:32.427Z,2.68
2022-10-12T09:56:04.085Z,3.46
2022-10-12T09:58:39.073Z,4.26
2022-10-12T10:01:28.316Z,2.74
2022-10-12T10:04:12.596Z,2.50
2022-10-12T10:06:42.100Z,4.15
2022-10-12T10:09:28.423Z,4.99
2022-10-12T10:11:56.877Z,4.23
2022-10-12T10:14:26.669Z,3.85
2022-10-12T10:16:55.774Z,2.88
2022-10-12T10:19:26.613Z,2.71
2022-10-12T10:21:55.970Z,2.28
2022-10-12T10:24:29.568Z,2.12
2022-10-12T10:26:59.983Z,2.79
2022-10-12T10:29:36.229Z,3.31
2022-10-12T10:32:24.183Z,2.44
2022-10-12T10:35:03.215Z,1.92
2022-10-12T10:37:32.044Z,1.92
2022-10-12T10:40:00.970Z,1.53
2022-10-12T10:42:31.696Z,1.40
2022-10-12T10:45:02.935Z,1.21
2022-10-12T10:47:33.190Z,1.00
2022-10-12T10:50:03.091Z,0.96
2022-10-12T10:52:32.648Z,0.60
2022-10-12T10:55:17.235Z,0.70
2022-10-12T10:57:49.591Z,1.17
2022-10-12T11:03:14.613Z,1.20
2022-10-12T11:05:46.182Z,1.85
2022-10-12T11:08:17.247Z,2.04
2022-10-12T11:10:49.766Z,2.43
2022-10-12T11:13:20.508Z,3.05
2022-10-12T11:15:51.732Z,3.17
2022-10-12T11:18:24.807Z,4.77
2022-10-12T11:20:56.462Z,7.14
2022-10-12T11:23:42.012Z,8.15
2022-10-12T11:26:14.877Z,6.32
2022-10-12T11:28:43.329Z,5.17
2022-10-12T11:31:20.171Z,4.43
2022-10-12T11:33:49.496Z,4.42
2022-10-12T11:36:20.608Z,4.04
2022-10-12T11:38:52.105Z,4.11
2022-10-12T11:41:37.767Z,4.85
2022-10-12T11:44:11.006Z,5.80
2022-10-12T11:46:46.050Z,6.52
2022-10-12T11:49:17.638Z,8.18
2022-10-12T11:51:48.067Z,8.95
2022-10-12T11:54:21.160Z,9.59
2022-10-12T11:56:51.596Z,10.56
2022-10-12T11:59:25.936Z,12.08
2022-10-12T12:02:02.671Z,13.38
2022-10-12T12:04:47.819Z,13.71
2022-10-12T12:07:56.797Z,13.71
2022-10-12T12:10:54.309Z,13.71
2022-10-12T12:13:27.087Z,13.98
2022-10-12T12:16:34.390Z,14.28
2022-10-12T12:19:42.630Z,14.99
2022-10-12T12:22:23.724Z,15.98
2022-10-12T12:24:58.214Z,16.51
2022-10-12T12:27:33.341Z,16.74
2022-10-12T12:30:03.139Z,16.99
2022-10-12T12:32:43.875Z,16.66
2022-10-12T12:35:23.289Z,17.04
2022-10-12T12:38:17.312Z,16.71
2022-10-12T12:41:00.509Z,16.80
2022-10-12T12:43:59.632Z,16.91
2022-10-12T12:50:02.571Z,17.30
2022-10-12T12:52:34.987Z,17.91
2022-10-12T12:55:20.479Z,17.99
2022-10-12T12:58:06.014Z,18.18
2022-10-12T13:00:39.067Z,19.01
2022-10-12T13:03:24.958Z,18.35
2022-10-12T13:06:30.060Z,18.62
2022-10-12T13:09:20.597Z,18.36
2022-10-12T13:12:09.701Z,18.45
2022-10-12T13:14:50.670Z,18.36
2022-10-12T13:17:38.206Z,17.54
2022-10-12T13:20:17.354Z,17.99
2022-10-12T13:22:46.811Z,18.42
2022-10-12T13:25:21.870Z,17.52
2022-10-12T13:27:52.294Z,17.64
2022-10-12T13:30:26.141Z,17.88
2022-10-12T13:32:58.082Z,17.44
2022-10-12T13:35:32.399Z,17.63
2022-10-12T13:38:02.485Z,17.49
2022-10-12T13:40:34.925Z,17.57
2022-10-12T13:43:35.489Z,17.41
2022-10-12T13:46:04.609Z,18.67
2022-10-12T13:48:58.788Z,18.72
2022-10-12T13:51:26.589Z,18.04
2022-10-12T13:53:55.180Z,18.25
2022-10-12T13:56:26.837Z,17.83
2022-10-12T13:58:59.058Z,18.32
2022-10-12T14:01:27.550Z,18.66
2022-10-12T14:04:03.654Z,18.06
2022-10-12T14:06:34.803Z,18.85
2022-10-12T14:09:08.998Z,18.69
2022-10-12T14:11:38.849Z,19.07
2022-10-12T14:14:07.740Z,18.97
2022-10-12T14:16:35.899Z,19.40
2022-10-12T14:19:19.887Z,18.76
2022-10-12T14:21:49.148Z,19.03
2022-10-12T14:24:19.911Z,19.18
2022-10-12T14:26:56.025Z,19.12
2022-10-12T14:29:32.237Z,19.92
2022-10-12T14:32:02.092Z,19.95
2022-10-12T14:34:40.473Z,19.60
2022-10-12T14:37:29.936Z,19.09
2022-10-12T14:40:02.625Z,19.49
2022-10-12T14:42:34.433Z,19.20
2022-10-12T14:45:04.893Z,19.26
2022-10-12T14:47:34.845Z,19.54
2022-10-12T14:50:08.253Z,19.45
2022-10-12T14:52:39.675Z,19.45
2022-10-12T14:55:11.364Z,19.63
2022-10-12T14:57:41.277Z,19.63
2022-10-12T15:00:10.254Z,20.01
2022-10-12T15:02:40.265Z,19.93
2022-10-12T15:05:10.484Z,20.40
2022-10-12T15:07:38.811Z,20.79
2022-10-12T15:10:08.061Z,20.74
2022-10-12T15:12:36.649Z,21.01
2022-10-12T15:15:24.279Z,20.70
2022-10-12T15:17:56.284Z,21.56
2022-10-12T15:20:24.601Z,21.55
2022-10-12T15:22:52.863Z,21.67
2022-10-12T15:25:24.435Z,21.52
2022-10-12T15:27:52.849Z,21.69
2022-10-12T15:30:22.736Z,21.79
2022-10-12T15:32:51.489Z,21.82
2022-10-12T15:35:24.639Z,21.47
2022-10-12T15:37:56.286Z,21.71
2022-10-12T15:40:25.657Z,21.58
2022-10-12T15:42:53.834Z,21.72
2022-10-12T15:45:25.120Z,21.72
2022-10-12T15:47:54.281Z,21.71
2022-10-12T15:50:24.833Z,21.88
2022-10-12T15:52:54.309Z,21.95
2022-10-12T15:55:25.016Z,21.95
2022-10-12T15:57:53.515Z,22.19
2022-10-12T16:00:26.048Z,22.31
2022-10-12T16:02:54.648Z,22.71
2022-10-12T16:05:24.324Z,23.13
2022-10-12T16:07:52.979Z,23.13
2022-10-12T16:10:23.803Z,23.27
2022-10-12T16:12:53.727Z,23.10
2022-10-12T16:15:24.862Z,23.30
2022-10-12T16:17:53.254Z,23.80
2022-10-12T16:20:21.607Z,23.91
2022-10-12T16:22:50.254Z,23.97
2022-10-12T16:25:21.594Z,23.95
2022-10-12T16:27:49.941Z,24.09
2022-10-12T16:30:18.452Z,24.30
2022-10-12T16:32:48.080Z,24.44
2022-10-12T16:35:16.655Z,24.60
2022-10-12T16:37:45.022Z,24.62
2022-10-12T16:40:13.964Z,24.84
2022-10-12T16:42:42.343Z,25.11
2022-10-12T16:45:11.389Z,25.27
2022-10-12T16:47:42.795Z,25.89
2022-10-12T16:50:13.049Z,25.54
2022-10-12T16:52:41.540Z,26.05
2022-10-12T16:55:10.645Z,26.44
2022-10-12T16:57:39.033Z,26.22
2022-10-12T17:00:08.468Z,26.11
2022-10-12T17:02:36.840Z,26.20
2022-10-12T17:05:05.620Z,26.22
2022-10-12T17:07:35.488Z,25.97
2022-10-12T17:10:03.614Z,26.49
2022-10-12T17:12:31.973Z,26.53
2022-10-12T17:15:00.139Z,26.84
2022-10-12T17:17:28.562Z,26.93
2022-10-12T17:19:56.810Z,26.90
2022-10-12T17:22:25.374Z,26.97
2022-10-12T17:24:54.918Z,26.90
2022-10-12T17:27:23.184Z,27.03
2022-10-12T17:29:51.277Z,27.01
2022-10-12T17:32:19.958Z,27.27
2022-10-12T17:34:48.208Z,27.43
2022-10-12T17:37:16.982Z,27.50
2022-10-12T17:39:48.023Z,27.61
2022-10-12T17:42:18.954Z,27.97
2022-10-12T17:44:47.522Z,28.05
2022-10-12T17:47:16.338Z,28.08
2022-10-12T17:49:44.830Z,28.17
2022-10-12T17:52:13.432Z,28.08
2022-10-12T17:54:41.836Z,28.13
2022-10-12T17:57:10.228Z,28.71
2022-10-12T17:59:40.244Z,28.96
2022-10-12T18:02:09.756Z,29.00
2022-10-12T18:04:38.700Z,28.98
2022-10-12T18:07:06.926Z,29.25
2022-10-12T18:09:35.035Z,29.07
2022-10-12T18:12:03.468Z,29.47
2022-10-12T18:14:31.592Z,30.08
2022-10-12T18:17:01.474Z,29.72
2022-10-12T18:19:30.095Z,29.79
2022-10-12T18:21:58.246Z,29.81
2022-10-12T18:24:26.316Z,29.79
2022-10-12T18:26:54.798Z,30.19
2022-10-12T18:29:23.009Z,30.29
2022-10-12T18:31:51.241Z,29.95
2022-10-12T18:34:20.935Z,29.81
2022-10-12T18:36:49.127Z,29.90
2022-10-12T18:39:17.634Z,29.97
2022-10-12T18:41:45.808Z,30.17
2022-10-12T18:44:15.129Z,30.37
2022-10-12T18:46:43.410Z,30.15
2022-10-12T18:49:12.300Z,30.21
2022-10-12T18:51:43.612Z,30.04
2022-10-12T18:54:12.946Z,29.18
2022-10-12T18:56:41.835Z,30.32
2022-10-12T18:59:11.658Z,30.58
2022-10-12T19:01:39.820Z,30.72
2022-10-12T19:04:08.227Z,30.78
2022-10-12T19:06:39.031Z,30.64
2022-10-12T19:09:08.878Z,30.78
2022-10-12T19:11:37.691Z,30.92
2022-10-12T19:14:08.250Z,30.85
2022-10-12T19:16:37.010Z,30.98
2022-10-12T19:19:11.835Z,30.82
2022-10-12T19:21:40.558Z,31.24
2022-10-12T19:24:12.629Z,30.89
2022-10-12T19:26:41.079Z,31.18
2022-10-12T19:29:09.714Z,31.67
2022-10-12T19:31:39.588Z,31.80
2022-10-12T19:34:10.550Z,31.99
2022-10-12T19:36:40.222Z,31.92
2022-10-12T19:39:13.517Z,31.79
2022-10-12T19:41:41.875Z,32.60
2022-10-12T19:44:11.863Z,31.92
2022-10-12T19:46:40.604Z,32.01
2022-10-12T19:49:08.994Z,32.26
2022-10-12T19:51:37.115Z,31.80
2022-10-12T19:54:05.602Z,31.97
2022-10-12T19:56:35.314Z,31.55
2022-10-12T19:59:03.778Z,31.94
2022-10-12T20:01:34.857Z,31.94
2022-10-12T20:04:06.744Z,32.26
2022-10-12T20:06:35.296Z,32.38
2022-10-12T20:09:03.463Z,32.12
2022-10-12T20:11:32.101Z,32.51
2022-10-12T20:14:01.853Z,32.03
2022-10-12T20:16:34.810Z,32.66
2022-10-12T20:19:04.016Z,32.62
2022-10-12T20:21:32.330Z,32.58
2022-10-12T20:24:00.453Z,32.41
2022-10-12T20:26:29.892Z,32.37
2022-10-12T20:28:58.267Z,32.60
2022-10-12T20:31:29.495Z,32.15
2022-10-12T20:33:58.860Z,32.44
2022-10-12T20:36:28.855Z,32.64
2022-10-12T20:38:58.355Z,32.59
2022-10-12T20:41:27.735Z,32.88
2022-10-12T20:43:57.363Z,32.74
2022-10-12T20:46:27.664Z,32.60
2022-10-12T20:48:58.811Z,32.36
2022-10-12T20:51:28.218Z,31.73
2022-10-12T20:53:59.200Z,32.80
2022-10-12T20:56:27.939Z,33.09
2022-10-12T20:58:56.521Z,33.35
2022-10-12T21:01:25.929Z,33.55
2022-10-12T21:03:56.082Z,33.39
2022-10-12T21:06:24.592Z,33.53
2022-10-12T21:08:53.664Z,33.53
2022-10-12T21:11:22.319Z,33.48
2022-10-12T21:13:51.103Z,33.81
2022-10-12T21:16:19.905Z,33.76
2022-10-12T21:18:48.286Z,33.75
2022-10-12T21:21:19.897Z,33.49
2022-10-12T21:23:52.430Z,32.75
2022-10-12T21:26:23.300Z,33.58
2022-10-12T21:28:51.691Z,34.17
2022-10-12T21:31:21.228Z,33.93
2022-10-12T21:33:49.708Z,34.31
2022-10-12T21:36:20.424Z,34.12
2022-10-12T21:38:49.235Z,34.15
2022-10-12T21:41:18.737Z,34.14
2022-10-12T21:43:48.446Z,34.35
2022-10-12T21:46:18.613Z,34.25
2022-10-12T21:48:47.282Z,34.46
2022-10-12T21:51:15.766Z,34.97
2022-10-12T21:53:45.655Z,35.38
2022-10-12T21:56:16.146Z,35.37
2022-10-12T21:58:44.821Z,35.23
2022-10-12T22:01:14.656Z,34.72
2022-10-12T22:03:43.710Z,34.85
2022-10-12T22:06:14.078Z,34.60
2022-10-12T22:08:42.388Z,34.92
2022-10-12T22:11:13.769Z,34.22
2022-10-12T22:13:42.028Z,34.48
2022-10-12T22:16:12.968Z,34.36
2022-10-12T22:18:41.933Z,35.03
2022-10-12T22:21:12.706Z,34.63
2022-10-12T22:23:41.868Z,34.90
2022-10-12T22:26:13.486Z,34.99
2022-10-12T22:28:41.898Z,35.07
2022-10-12T22:31:11.925Z,35.20
2022-10-12T22:33:40.545Z,34.88
2022-10-12T22:36:09.571Z,34.89
2022-10-12T22:38:37.818Z,34.67
2022-10-12T22:41:07.606Z,34.77
2022-10-12T22:43:37.721Z,34.95
2022-10-12T22:46:06.217Z,34.88
2022-10-12T22:48:35.226Z,34.93
2022-10-12T22:51:04.127Z,35.25
2022-10-12T22:53:32.253Z,35.08
2022-10-12T22:56:02.085Z,35.01
2022-10-12T22:58:30.770Z,35.26
2022-10-12T23:01:04.250Z,34.79
2022-10-12T23:03:33.175Z,35.16
2022-10-12T23:06:01.528Z,35.22
2022-10-12T23:08:30.352Z,35.22
2022-10-12T23:11:04.960Z,35.01
2022-10-12T23:13:33.264Z,35.25
2022-10-12T23:16:07.434Z,34.71
2022-10-12T23:18:36.655Z,35.10
2022-10-12T23:21:06.364Z,35.35
2022-10-12T23:23:34.929Z,35.80
2022-10-12T23:26:04.799Z,35.79
2022-10-12T23:28:33.303Z,35.62
2022-10-12T23:31:03.862Z,35.24
2022-10-12T23:33:33.607Z,35.57
2022-10-12T23:36:03.723Z,35.88
2022-10-12T23:38:33.760Z,35.73
2022-10-12T23:41:02.322Z,35.94
2022-10-12T23:43:30.713Z,35.98
2022-10-12T23:45:58.965Z,35.91
2022-10-12T23:48:27.624Z,36.09
2022-10-12T23:50:57.706Z,35.86
2022-10-12T23:53:26.404Z,36.02
2022-10-12T23:55:54.770Z,36.25
2022-10-12T23:58:23.085Z,35.82
